sensor_id;sensor_type;location;lat;lon;timestamp;pressure;altitude;pressure_sealevel;temperature;humidity
77325;BME280;66387;53.440;10.390;2023-01-15T00:02:22;98736.69;;;6.32;88.78
77325;BME280;66387;53.440;10.390;2023-01-15T00:04:49;98733.22;;;6.33;89.55
77325;BME280;66387;53.440;10.390;2023-01-15T00:07:15;98739.97;;;6.37;88.62
77325;BME280;66387;53.440;10.390;2023-01-15T00:09:40;98763.22;;;6.36;86.79
77325;BME280;66387;53.440;10.390;2023-01-15T00:12:05;98759.13;;;6.27;87.33
77325;BME280;66387;53.440;10.390;2023-01-15T00:14:31;98764.28;;;6.27;87.17
77325;BME280;66387;53.440;10.390;2023-01-15T00:16:56;98758.44;;;6.22;87.15
77325;BME280;66387;53.440;10.390;2023-01-15T00:19:21;98760.25;;;6.19;87.50
77325;BME280;66387;53.440;10.390;2023-01-15T00:21:46;98762.75;;;6.20;87.19
77325;BME280;66387;53.440;10.390;2023-01-15T00:24:12;98768.94;;;6.13;87.59
77325;BME280;66387;53.440;10.390;2023-01-15T00:26:55;98766.38;;;6.13;87.08
77325;BME280;66387;53.440;10.390;2023-01-15T00:29:39;98770.72;;;6.11;86.83
77325;BME280;66387;53.440;10.390;2023-01-15T00:32:06;98770.72;;;6.11;87.23
77325;BME280;66387;53.440;10.390;2023-01-15T00:34:32;98764.84;;;6.06;86.52
77325;BME280;66387;53.440;10.390;2023-01-15T00:36:58;98778.66;;;6.02;86.41
77325;BME280;66387;53.440;10.390;2023-01-15T00:39:23;98772.56;;;6.06;87.05
77325;BME280;66387;53.440;10.390;2023-01-15T00:41:49;98782.09;;;6.03;87.02
77325;BME280;66387;53.440;10.390;2023-01-15T00:44:14;98779.50;;;6.04;86.75
77325;BME280;66387;53.440;10.390;2023-01-15T00:46:40;98779.53;;;6.01;85.74
77325;BME280;66387;53.440;10.390;2023-01-15T00:49:05;98794.19;;;5.99;86.22
77325;BME280;66387;53.440;10.390;2023-01-15T00:51:31;98794.44;;;5.90;86.47
77325;BME280;66387;53.440;10.390;2023-01-15T00:53:56;98790.09;;;5.90;86.23
77325;BME280;66387;53.440;10.390;2023-01-15T00:56:21;98786.63;;;5.93;86.26
77325;BME280;66387;53.440;10.390;2023-01-15T00:58:47;98782.50;;;5.86;85.92
77325;BME280;66387;53.440;10.390;2023-01-15T01:01:13;98791.03;;;5.88;86.52
77325;BME280;66387;53.440;10.390;2023-01-15T01:03:38;98794.47;;;5.87;86.15
77325;BME280;66387;53.440;10.390;2023-01-15T01:06:04;98794.44;;;5.90;86.76
77325;BME280;66387;53.440;10.390;2023-01-15T01:08:29;98791.91;;;5.87;85.30
77325;BME280;66387;53.440;10.390;2023-01-15T01:11:06;98802.22;;;5.85;87.09
77325;BME280;66387;53.440;10.390;2023-01-15T01:13:32;98804.72;;;5.90;85.83
77325;BME280;66387;53.440;10.390;2023-01-15T01:15:58;98809.91;;;5.87;85.18
77325;BME280;66387;53.440;10.390;2023-01-15T01:18:23;98811.66;;;5.85;85.81
77325;BME280;66387;53.440;10.390;2023-01-15T01:20:49;98806.59;;;5.82;86.10
77325;BME280;66387;53.440;10.390;2023-01-15T01:23:14;98805.69;;;5.83;85.90
77325;BME280;66387;53.440;10.390;2023-01-15T01:25:39;98810.06;;;5.79;86.41
77325;BME280;66387;53.440;10.390;2023-01-15T01:28:04;98803.97;;;5.83;86.20
77325;BME280;66387;53.440;10.390;2023-01-15T01:30:30;98805.75;;;5.80;86.86
77325;BME280;66387;53.440;10.390;2023-01-15T01:32:55;98811.75;;;5.82;86.11
77325;BME280;66387;53.440;10.390;2023-01-15T01:35:20;98802.41;;;5.78;87.18
77325;BME280;66387;53.440;10.390;2023-01-15T01:37:49;98812.63;;;5.81;87.04
77325;BME280;66387;53.440;10.390;2023-01-15T01:40:16;98811.66;;;5.85;86.21
77325;BME280;66387;53.440;10.390;2023-01-15T01:42:41;98808.25;;;5.86;87.70
77325;BME280;66387;53.440;10.390;2023-01-15T01:45:17;98798.81;;;5.86;87.07
77325;BME280;66387;53.440;10.390;2023-01-15T01:47:43;98806.66;;;5.79;86.80
77325;BME280;66387;53.440;10.390;2023-01-15T01:50:12;98812.69;;;5.78;87.23
77325;BME280;66387;53.440;10.390;2023-01-15T01:52:42;98805.81;;;5.78;87.60
77325;BME280;66387;53.440;10.390;2023-01-15T01:55:09;98810.84;;;5.83;87.22
77325;BME280;66387;53.440;10.390;2023-01-15T01:57:37;98803.97;;;5.83;88.14
77325;BME280;66387;53.440;10.390;2023-01-15T02:00:04;98809.09;;;5.85;87.63
77325;BME280;66387;53.440;10.390;2023-01-15T02:02:31;98809.19;;;5.80;88.11
77325;BME280;66387;53.440;10.390;2023-01-15T02:04:56;98813.41;;;5.83;87.80
77325;BME280;66387;53.440;10.390;2023-01-15T02:07:22;98809.25;;;5.79;88.34
77325;BME280;66387;53.440;10.390;2023-01-15T02:09:47;98804.81;;;5.84;87.45
77325;BME280;66387;53.440;10.390;2023-01-15T02:12:21;98799.75;;;5.81;87.39
77325;BME280;66387;53.440;10.390;2023-01-15T02:15:07;98792.03;;;5.81;88.02
77325;BME280;66387;53.440;10.390;2023-01-15T02:17:51;98791.22;;;5.79;88.20
77325;BME280;66387;53.440;10.390;2023-01-15T02:23:21;98784.28;;;5.81;88.38
77325;BME280;66387;53.440;10.390;2023-01-15T02:26:04;98795.53;;;5.78;88.66
77325;BME280;66387;53.440;10.390;2023-01-15T02:28:39;98793.84;;;5.76;88.19
77325;BME280;66387;53.440;10.390;2023-01-15T02:31:16;98792.97;;;5.77;88.09
77325;BME280;66387;53.440;10.390;2023-01-15T02:33:57;98800.53;;;5.83;88.02
77325;BME280;66387;53.440;10.390;2023-01-15T02:36:25;98800.53;;;5.86;88.10
77325;BME280;66387;53.440;10.390;2023-01-15T02:38:54;98808.19;;;5.87;87.57
77325;BME280;66387;53.440;10.390;2023-01-15T02:41:25;98797.88;;;5.89;87.63
77325;BME280;66387;53.440;10.390;2023-01-15T02:43:54;98803.97;;;5.83;87.60
77325;BME280;66387;53.440;10.390;2023-01-15T02:46:24;98807.38;;;5.85;86.99
77325;BME280;66387;53.440;10.390;2023-01-15T02:48:53;98810.84;;;5.83;87.62
77325;BME280;66387;53.440;10.390;2023-01-15T02:51:22;98810.13;;;5.78;87.31
77325;BME280;66387;53.440;10.390;2023-01-15T02:53:52;98810.97;;;5.78;87.14
77325;BME280;66387;53.440;10.390;2023-01-15T02:56:22;98790.53;;;5.71;88.03
77325;BME280;66387;53.440;10.390;2023-01-15T02:58:53;98780.16;;;5.75;87.02
77325;BME280;66387;53.440;10.390;2023-01-15T03:01:26;98797.25;;;5.78;86.64
77325;BME280;66387;53.440;10.390;2023-01-15T03:04:03;98796.38;;;5.79;87.16
77325;BME280;66387;53.440;10.390;2023-01-15T03:06:42;98803.19;;;5.80;86.68
77325;BME280;66387;53.440;10.390;2023-01-15T03:09:09;98794.66;;;5.78;86.18
77325;BME280;66387;53.440;10.390;2023-01-15T03:11:41;98799.72;;;5.82;86.02
77325;BME280;66387;53.440;10.390;2023-01-15T03:14:15;98802.31;;;5.81;85.92
77325;BME280;66387;53.440;10.390;2023-01-15T03:16:55;98808.31;;;5.81;86.01
77325;BME280;66387;53.440;10.390;2023-01-15T03:22:04;98809.09;;;5.86;85.47
77325;BME280;66387;53.440;10.390;2023-01-15T03:24:40;98799.75;;;5.81;85.25
77325;BME280;66387;53.440;10.390;2023-01-15T03:27:08;98806.59;;;5.82;86.07
77325;BME280;66387;53.440;10.390;2023-01-15T03:29:38;98807.44;;;5.82;85.44
77325;BME280;66387;53.440;10.390;2023-01-15T03:32:04;98804.81;;;5.84;85.32
77325;BME280;66387;53.440;10.390;2023-01-15T03:34:48;98803.13;;;5.83;84.86
77325;BME280;66387;53.440;10.390;2023-01-15T03:37:14;98787.75;;;5.80;85.64
77325;BME280;66387;53.440;10.390;2023-01-15T03:39:40;98807.53;;;5.78;85.03
77325;BME280;66387;53.440;10.390;2023-01-15T03:42:33;98798.88;;;5.82;84.72
77325;BME280;66387;53.440;10.390;2023-01-15T03:45:14;98792.03;;;5.81;85.55
77325;BME280;66387;53.440;10.390;2023-01-15T03:48:01;98794.50;;;5.84;85.71
77325;BME280;66387;53.440;10.390;2023-01-15T03:50:42;98791.09;;;5.83;85.00
77325;BME280;66387;53.440;10.390;2023-01-15T03:53:19;98794.50;;;5.84;84.88
77325;BME280;66387;53.440;10.390;2023-01-15T03:55:53;98787.66;;;5.83;85.48
77325;BME280;66387;53.440;10.390;2023-01-15T03:58:28;98793.81;;;5.77;85.15
77325;BME280;66387;53.440;10.390;2023-01-15T04:00:57;98785.28;;;5.75;85.12
77325;BME280;66387;53.440;10.390;2023-01-15T04:03:25;98785.50;;;5.66;85.66
77325;BME280;66387;53.440;10.390;2023-01-15T04:05:55;98788.91;;;5.67;85.40
77325;BME280;66387;53.440;10.390;2023-01-15T04:08:22;98777.88;;;5.62;85.58
77325;BME280;66387;53.440;10.390;2023-01-15T04:10:53;98783.00;;;5.62;86.03
77325;BME280;66387;53.440;10.390;2023-01-15T04:13:19;98782.22;;;5.60;85.57
77325;BME280;66387;53.440;10.390;2023-01-15T04:15:44;98774.41;;;5.63;85.16
77325;BME280;66387;53.440;10.390;2023-01-15T04:18:10;98776.22;;;5.59;85.48
77325;BME280;66387;53.440;10.390;2023-01-15T04:20:35;98772.78;;;5.60;85.50
77325;BME280;66387;53.440;10.390;2023-01-15T04:23:00;98771.88;;;5.61;84.80
77325;BME280;66387;53.440;10.390;2023-01-15T04:25:25;98770.03;;;5.66;85.05
77325;BME280;66387;53.440;10.390;2023-01-15T04:27:53;98771.84;;;5.63;85.17
77325;BME280;66387;53.440;10.390;2023-01-15T04:30:19;98767.69;;;5.57;84.92
77325;BME280;66387;53.440;10.390;2023-01-15T04:32:47;98762.56;;;5.56;85.74
77325;BME280;66387;53.440;10.390;2023-01-15T04:35:12;98755.66;;;5.58;85.52
77325;BME280;66387;53.440;10.390;2023-01-15T04:37:38;98755.78;;;5.52;85.64
77325;BME280;66387;53.440;10.390;2023-01-15T04:40:04;98752.44;;;5.50;85.02
77325;BME280;66387;53.440;10.390;2023-01-15T04:42:29;98757.59;;;5.48;85.20
77325;BME280;66387;53.440;10.390;2023-01-15T04:45:13;98772.09;;;5.51;85.71
77325;BME280;66387;53.440;10.390;2023-01-15T04:47:38;98770.44;;;5.50;85.42
77325;BME280;66387;53.440;10.390;2023-01-15T04:50:04;98758.38;;;5.52;85.02
77325;BME280;66387;53.440;10.390;2023-01-15T04:52:29;98774.81;;;5.44;85.12
77325;BME280;66387;53.440;10.390;2023-01-15T04:54:55;98770.38;;;5.53;84.66
77325;BME280;66387;53.440;10.390;2023-01-15T04:57:20;98767.19;;;5.41;85.68
77325;BME280;66387;53.440;10.390;2023-01-15T04:59:45;98769.59;;;5.48;85.26
77325;BME280;66387;53.440;10.390;2023-01-15T05:02:10;98771.31;;;5.47;84.35
77325;BME280;66387;53.440;10.390;2023-01-15T05:04:36;98773.81;;;5.50;84.60
77325;BME280;66387;53.440;10.390;2023-01-15T05:07:02;98766.16;;;5.49;84.65
77325;BME280;66387;53.440;10.390;2023-01-15T05:09:28;98754.94;;;5.51;85.15
77325;BME280;66387;53.440;10.390;2023-01-15T05:11:53;98748.94;;;5.52;85.02
77325;BME280;66387;53.440;10.390;2023-01-15T05:14:18;98743.88;;;5.48;85.09
77325;BME280;66387;53.440;10.390;2023-01-15T05:16:44;98753.44;;;5.42;84.32
77325;BME280;66387;53.440;10.390;2023-01-15T05:19:09;98751.81;;;5.38;85.27
77325;BME280;66387;53.440;10.390;2023-01-15T05:21:38;98754.41;;;5.37;84.80
77325;BME280;66387;53.440;10.390;2023-01-15T05:24:05;98736.53;;;5.31;84.68
77325;BME280;66387;53.440;10.390;2023-01-15T05:26:33;98752.91;;;5.27;84.87
77325;BME280;66387;53.440;10.390;2023-01-15T05:29:00;98736.50;;;5.32;84.18
77325;BME280;66387;53.440;10.390;2023-01-15T05:31:27;98741.72;;;5.29;85.41
77325;BME280;66387;53.440;10.390;2023-01-15T05:33:53;98737.41;;;5.30;84.39
77325;BME280;66387;53.440;10.390;2023-01-15T05:36:21;98759.59;;;5.35;84.38
77325;BME280;66387;53.440;10.390;2023-01-15T05:38:47;98735.63;;;5.33;84.39
77325;BME280;66387;53.440;10.390;2023-01-15T05:41:16;98737.44;;;5.28;83.58
77325;BME280;66387;53.440;10.390;2023-01-15T05:44:02;98740.06;;;5.27;83.73
77325;BME280;66387;53.440;10.390;2023-01-15T05:46:27;98737.44;;;5.28;84.12
77325;BME280;66387;53.440;10.390;2023-01-15T05:48:53;98723.78;;;5.26;83.79
77325;BME280;66387;53.440;10.390;2023-01-15T05:51:18;98734.94;;;5.25;83.98
77325;BME280;66387;53.440;10.390;2023-01-15T05:53:43;98744.41;;;5.23;84.28
77325;BME280;66387;53.440;10.390;2023-01-15T05:56:09;98738.50;;;5.20;85.13
77325;BME280;66387;53.440;10.390;2023-01-15T05:58:35;98739.38;;;5.19;85.20
77325;BME280;66387;53.440;10.390;2023-01-15T06:01:05;98752.28;;;5.17;84.78
77325;BME280;66387;53.440;10.390;2023-01-15T06:03:31;98736.00;;;5.15;85.42
77325;BME280;66387;53.440;10.390;2023-01-15T06:05:56;98736.09;;;5.12;85.72
77325;BME280;66387;53.440;10.390;2023-01-15T06:08:22;98731.81;;;5.11;85.14
77325;BME280;66387;53.440;10.390;2023-01-15T06:10:48;98743.75;;;5.14;85.86
77325;BME280;66387;53.440;10.390;2023-01-15T06:13:14;98748.09;;;5.12;85.31
77325;BME280;66387;53.440;10.390;2023-01-15T06:15:40;98749.13;;;5.03;85.68
77325;BME280;66387;53.440;10.390;2023-01-15T06:18:05;98753.25;;;5.10;84.97
77325;BME280;66387;53.440;10.390;2023-01-15T06:20:30;98744.75;;;5.08;85.36
77325;BME280;66387;53.440;10.390;2023-01-15T06:22:56;98756.75;;;5.08;84.96
77325;BME280;66387;53.440;10.390;2023-01-15T06:25:21;98759.22;;;5.12;85.79
77325;BME280;66387;53.440;10.390;2023-01-15T06:27:46;98752.47;;;5.08;84.89
77325;BME280;66387;53.440;10.390;2023-01-15T06:30:13;98761.94;;;5.06;85.05
77325;BME280;66387;53.440;10.390;2023-01-15T06:32:39;98763.63;;;5.07;86.01
77325;BME280;66387;53.440;10.390;2023-01-15T06:35:04;98763.75;;;5.01;85.19
77325;BME280;66387;53.440;10.390;2023-01-15T06:37:30;98758.63;;;5.00;85.84
77325;BME280;66387;53.440;10.390;2023-01-15T06:39:55;98762.88;;;5.02;85.08
77325;BME280;66387;53.440;10.390;2023-01-15T06:42:20;98761.09;;;5.06;85.47
77325;BME280;66387;53.440;10.390;2023-01-15T06:45:04;98751.03;;;4.95;85.61
77325;BME280;66387;53.440;10.390;2023-01-15T06:47:48;98752.75;;;4.94;86.14
77325;BME280;66387;53.440;10.390;2023-01-15T06:50:14;98756.16;;;4.95;86.02
77325;BME280;66387;53.440;10.390;2023-01-15T06:52:39;98745.91;;;4.92;85.30
77325;BME280;66387;53.440;10.390;2023-01-15T06:55:05;98750.19;;;4.93;84.95
77325;BME280;66387;53.440;10.390;2023-01-15T06:57:30;98743.41;;;4.89;85.26
77325;BME280;66387;53.440;10.390;2023-01-15T06:59:56;98736.50;;;4.92;84.98
77325;BME280;66387;53.440;10.390;2023-01-15T07:02:21;98731.47;;;4.88;85.49
77325;BME280;66387;53.440;10.390;2023-01-15T07:04:46;98748.56;;;4.89;85.62
77325;BME280;66387;53.440;10.390;2023-01-15T07:07:17;98748.69;;;4.83;85.46
77325;BME280;66387;53.440;10.390;2023-01-15T07:09:42;98752.03;;;4.88;85.35
77325;BME280;66387;53.440;10.390;2023-01-15T07:12:08;98745.19;;;4.87;84.84
77325;BME280;66387;53.440;10.390;2023-01-15T07:14:33;98748.59;;;4.87;85.47
77325;BME280;66387;53.440;10.390;2023-01-15T07:16:59;98743.56;;;4.83;85.52
77325;BME280;66387;53.440;10.390;2023-01-15T07:19:24;98744.50;;;4.77;85.79
77325;BME280;66387;53.440;10.390;2023-01-15T07:21:50;98737.66;;;4.78;85.27
77325;BME280;66387;53.440;10.390;2023-01-15T07:24:16;98747.94;;;4.78;84.73
77325;BME280;66387;53.440;10.390;2023-01-15T07:26:42;98745.28;;;4.81;84.67
77325;BME280;66387;53.440;10.390;2023-01-15T07:29:08;98743.63;;;4.80;85.27
77325;BME280;66387;53.440;10.390;2023-01-15T07:31:33;98750.50;;;4.78;85.16
77325;BME280;66387;53.440;10.390;2023-01-15T07:33:59;98755.56;;;4.81;84.98
77325;BME280;66387;53.440;10.390;2023-01-15T07:36:24;98750.50;;;4.78;84.90
77325;BME280;66387;53.440;10.390;2023-01-15T07:38:50;98750.56;;;4.75;84.70
77325;BME280;66387;53.440;10.390;2023-01-15T07:41:15;98748.81;;;4.77;85.12
77325;BME280;66387;53.440;10.390;2023-01-15T07:43:59;98752.13;;;4.82;84.55
77325;BME280;66387;53.440;10.390;2023-01-15T07:46:43;98755.63;;;4.78;84.04
77325;BME280;66387;53.440;10.390;2023-01-15T07:49:27;98755.56;;;4.81;84.55
77325;BME280;66387;53.440;10.390;2023-01-15T07:52:15;98765.84;;;4.81;84.36
77325;BME280;66387;53.440;10.390;2023-01-15T07:54:40;98765.91;;;4.78;84.17
77325;BME280;66387;53.440;10.390;2023-01-15T07:57:06;98766.84;;;4.74;83.85
77325;BME280;66387;53.440;10.390;2023-01-15T07:59:31;98773.53;;;4.82;83.52
77325;BME280;66387;53.440;10.390;2023-01-15T08:01:57;98761.63;;;4.78;83.97
77325;BME280;66387;53.440;10.390;2023-01-15T08:04:22;98759.94;;;4.77;84.07
77325;BME280;66387;53.440;10.390;2023-01-15T08:06:47;98752.06;;;4.85;83.46
77325;BME280;66387;53.440;10.390;2023-01-15T08:09:13;98750.41;;;4.84;83.67
77325;BME280;66387;53.440;10.390;2023-01-15T08:11:38;98751.19;;;4.87;83.07
77325;BME280;66387;53.440;10.390;2023-01-15T08:14:22;98761.47;;;4.87;83.08
77325;BME280;66387;53.440;10.390;2023-01-15T08:17:06;98747.56;;;4.96;82.49
77325;BME280;66387;53.440;10.390;2023-01-15T08:19:31;98753.53;;;4.98;81.71
77325;BME280;66387;53.440;10.390;2023-01-15T08:21:57;98772.34;;;5.00;82.03
77325;BME280;66387;53.440;10.390;2023-01-15T08:24:23;98753.41;;;5.04;82.11
77325;BME280;66387;53.440;10.390;2023-01-15T08:26:48;98755.94;;;5.06;82.22
77325;BME280;66387;53.440;10.390;2023-01-15T08:29:14;98755.84;;;5.10;81.93
77325;BME280;66387;53.440;10.390;2023-01-15T08:31:39;98754.94;;;5.13;81.11
77325;BME280;66387;53.440;10.390;2023-01-15T08:34:06;98762.66;;;5.13;81.38
77325;BME280;66387;53.440;10.390;2023-01-15T08:36:31;98765.13;;;5.17;80.78
77325;BME280;66387;53.440;10.390;2023-01-15T08:38:56;98760.00;;;5.17;80.36
77325;BME280;66387;53.440;10.390;2023-01-15T08:41:22;98765.19;;;5.14;80.91
77325;BME280;66387;53.440;10.390;2023-01-15T08:43:47;98753.16;;;5.16;80.83
77325;BME280;66387;53.440;10.390;2023-01-15T08:46:12;98756.53;;;5.18;80.78
77325;BME280;66387;53.440;10.390;2023-01-15T08:48:37;98753.00;;;5.22;80.88
77325;BME280;66387;53.440;10.390;2023-01-15T08:51:07;98758.16;;;5.22;80.35
77325;BME280;66387;53.440;10.390;2023-01-15T08:53:33;98749.63;;;5.20;80.29
77325;BME280;66387;53.440;10.390;2023-01-15T08:55:59;98752.94;;;5.25;79.79
77325;BME280;66387;53.440;10.390;2023-01-15T08:58:29;98747.72;;;5.28;79.65
77325;BME280;66387;53.440;10.390;2023-01-15T09:00:54;98757.22;;;5.25;80.05
77325;BME280;66387;53.440;10.390;2023-01-15T09:03:20;98751.13;;;5.30;79.38
77325;BME280;66387;53.440;10.390;2023-01-15T09:05:45;98747.78;;;5.27;79.89
77325;BME280;66387;53.440;10.390;2023-01-15T09:08:10;98755.41;;;5.30;79.40
77325;BME280;66387;53.440;10.390;2023-01-15T09:10:36;98747.78;;;5.27;79.82
77325;BME280;66387;53.440;10.390;2023-01-15T09:13:02;98752.84;;;5.30;79.34
77325;BME280;66387;53.440;10.390;2023-01-15T09:15:29;98745.19;;;5.27;79.05
77325;BME280;66387;53.440;10.390;2023-01-15T09:17:55;98744.34;;;5.26;78.78
77325;BME280;66387;53.440;10.390;2023-01-15T09:20:20;98743.59;;;5.21;78.78
77325;BME280;66387;53.440;10.390;2023-01-15T09:22:45;98744.41;;;5.23;77.93
77325;BME280;66387;53.440;10.390;2023-01-15T09:25:13;98741.91;;;5.20;78.60
77325;BME280;66387;53.440;10.390;2023-01-15T09:27:38;98748.69;;;5.24;78.05
77325;BME280;66387;53.440;10.390;2023-01-15T09:30:04;98735.94;;;5.20;77.27
77325;BME280;66387;53.440;10.390;2023-01-15T09:32:29;98719.66;;;5.18;77.88
77325;BME280;66387;53.440;10.390;2023-01-15T09:34:54;98731.66;;;5.19;76.34
77325;BME280;66387;53.440;10.390;2023-01-15T09:37:19;98751.38;;;5.18;76.81
77325;BME280;66387;53.440;10.390;2023-01-15T09:39:45;98738.69;;;5.11;76.47
77325;BME280;66387;53.440;10.390;2023-01-15T09:42:27;98736.94;;;5.13;76.15
77325;BME280;66387;53.440;10.390;2023-01-15T09:45:16;98755.72;;;5.16;73.87
77325;BME280;66387;53.440;10.390;2023-01-15T09:48:10;98748.94;;;5.12;72.33
77325;BME280;66387;53.440;10.390;2023-01-15T09:50:57;98746.31;;;5.15;71.18
77325;BME280;66387;53.440;10.390;2023-01-15T09:53:46;98738.75;;;5.08;71.11
77325;BME280;66387;53.440;10.390;2023-01-15T09:56:21;98743.19;;;5.01;69.99
77325;BME280;66387;53.440;10.390;2023-01-15T09:58:48;98752.69;;;4.96;70.42
77325;BME280;66387;53.440;10.390;2023-01-15T10:01:18;98739.09;;;4.91;70.24
77325;BME280;66387;53.440;10.390;2023-01-15T10:03:50;98747.69;;;4.91;70.15
77325;BME280;66387;53.440;10.390;2023-01-15T10:06:26;98751.03;;;4.95;70.46
77325;BME280;66387;53.440;10.390;2023-01-15T10:11:44;98749.97;;;5.05;71.57
77325;BME280;66387;53.440;10.390;2023-01-15T10:14:39;98747.94;;;5.19;71.42
77325;BME280;66387;53.440;10.390;2023-01-15T10:17:20;98755.50;;;5.27;72.20
77325;BME280;66387;53.440;10.390;2023-01-15T10:19:46;98758.09;;;5.25;72.15
77325;BME280;66387;53.440;10.390;2023-01-15T10:22:34;98760.63;;;5.27;72.35
77325;BME280;66387;53.440;10.390;2023-01-15T10:25:08;98773.41;;;5.31;73.16
77325;BME280;66387;53.440;10.390;2023-01-15T10:27:38;98780.13;;;5.37;73.29
77325;BME280;66387;53.440;10.390;2023-01-15T10:30:16;98775.84;;;5.37;73.10
77325;BME280;66387;53.440;10.390;2023-01-15T10:32:49;98767.09;;;5.46;72.48
77325;BME280;66387;53.440;10.390;2023-01-15T10:35:30;98762.72;;;5.50;72.94
77325;BME280;66387;53.440;10.390;2023-01-15T10:38:19;98766.16;;;5.49;72.33
77325;BME280;66387;53.440;10.390;2023-01-15T10:41:05;98760.94;;;5.52;71.95
77325;BME280;66387;53.440;10.390;2023-01-15T10:46:28;98761.56;;;5.61;70.52
77325;BME280;66387;53.440;10.390;2023-01-15T10:49:10;98776.03;;;5.67;70.38
77325;BME280;66387;53.440;10.390;2023-01-15T10:54:25;98747.44;;;5.79;69.40
77325;BME280;66387;53.440;10.390;2023-01-15T10:57:11;98746.28;;;5.92;69.22
77325;BME280;66387;53.440;10.390;2023-01-15T10:59:49;98750.44;;;5.98;68.73
77325;BME280;66387;53.440;10.390;2023-01-15T11:02:39;98738.13;;;6.10;68.63
77325;BME280;66387;53.440;10.390;2023-01-15T11:05:11;98740.63;;;6.13;68.08
77325;BME280;66387;53.440;10.390;2023-01-15T11:07:41;98726.78;;;6.17;67.50
77325;BME280;66387;53.440;10.390;2023-01-15T11:10:10;98742.00;;;6.26;67.76
77325;BME280;66387;53.440;10.390;2023-01-15T11:12:38;98734.19;;;6.29;66.51
77325;BME280;66387;53.440;10.390;2023-01-15T11:15:24;98714.44;;;6.30;66.59
77325;BME280;66387;53.440;10.390;2023-01-15T11:18:14;98731.38;;;6.38;66.78
77325;BME280;66387;53.440;10.390;2023-01-15T11:21:01;98715.00;;;6.41;66.22
77325;BME280;66387;53.440;10.390;2023-01-15T11:23:26;98720.00;;;6.46;65.52
77325;BME280;66387;53.440;10.390;2023-01-15T11:25:55;98701.56;;;6.61;65.87
77325;BME280;66387;53.440;10.390;2023-01-15T11:28:35;98725.47;;;6.66;64.04
77325;BME280;66387;53.440;10.390;2023-01-15T11:31:04;98699.69;;;6.66;64.33
77325;BME280;66387;53.440;10.390;2023-01-15T11:33:30;98703.25;;;6.62;62.82
77325;BME280;66387;53.440;10.390;2023-01-15T11:35:58;98706.50;;;6.68;62.04
77325;BME280;66387;53.440;10.390;2023-01-15T11:38:29;98692.50;;;6.77;62.11
77325;BME280;66387;53.440;10.390;2023-01-15T11:41:00;98710.03;;;6.64;63.24
77325;BME280;66387;53.440;10.390;2023-01-15T11:43:28;98708.63;;;6.53;62.83
77325;BME280;66387;53.440;10.390;2023-01-15T11:46:25;98697.06;;;6.36;63.50
77325;BME280;66387;53.440;10.390;2023-01-15T11:49:10;98707.78;;;6.21;63.05
77325;BME280;66387;53.440;10.390;2023-01-15T11:51:55;98722.38;;;6.21;63.39
77325;BME280;66387;53.440;10.390;2023-01-15T11:54:22;98695.09;;;6.14;63.64
77325;BME280;66387;53.440;10.390;2023-01-15T11:56:49;98688.09;;;6.19;64.42
77325;BME280;66387;53.440;10.390;2023-01-15T11:59:17;98693.41;;;6.13;64.31
77325;BME280;66387;53.440;10.390;2023-01-15T12:02:11;98683.09;;;6.13;65.44
77325;BME280;66387;53.440;10.390;2023-01-15T12:04:53;98678.00;;;6.11;64.91
77325;BME280;66387;53.440;10.390;2023-01-15T12:07:20;98685.75;;;6.10;65.81
77325;BME280;66387;53.440;10.390;2023-01-15T12:10:08;98712.66;;;5.98;67.78
77325;BME280;66387;53.440;10.390;2023-01-15T12:12:55;98718.22;;;5.80;68.73
77325;BME280;66387;53.440;10.390;2023-01-15T12:15:37;98751.47;;;5.54;73.75
77325;BME280;66387;53.440;10.390;2023-01-15T12:20:51;98751.91;;;4.50;81.60
77325;BME280;66387;53.440;10.390;2023-01-15T12:23:47;98756.78;;;4.17;83.33
77325;BME280;66387;53.440;10.390;2023-01-15T12:26:29;98739.06;;;4.02;85.06
77325;BME280;66387;53.440;10.390;2023-01-15T12:29:15;98743.63;;;3.85;86.70
77325;BME280;66387;53.440;10.390;2023-01-15T12:31:55;98728.22;;;3.85;86.88
77325;BME280;66387;53.440;10.390;2023-01-15T12:34:51;98724.88;;;3.80;87.27
77325;BME280;66387;53.440;10.390;2023-01-15T12:37:27;98719.78;;;3.78;86.78
77325;BME280;66387;53.440;10.390;2023-01-15T12:42:45;98704.03;;;3.98;86.03
77325;BME280;66387;53.440;10.390;2023-01-15T12:45:35;98697.81;;;4.11;86.04
77325;BME280;66387;53.440;10.390;2023-01-15T12:48:16;98688.38;;;4.13;85.57
77325;BME280;66387;53.440;10.390;2023-01-15T12:50:46;98673.81;;;4.12;85.21
77325;BME280;66387;53.440;10.390;2023-01-15T12:55:49;98678.81;;;4.21;84.31
77325;BME280;66387;53.440;10.390;2023-01-15T13:01:28;98680.09;;;4.43;82.23
77325;BME280;66387;53.440;10.390;2023-01-15T13:04:11;98686.75;;;4.52;81.36
77325;BME280;66387;53.440;10.390;2023-01-15T13:06:43;98673.91;;;4.54;81.24
77325;BME280;66387;53.440;10.390;2023-01-15T13:11:56;98657.19;;;4.74;80.38
77325;BME280;66387;53.440;10.390;2023-01-15T13:14:22;98671.50;;;4.86;79.94
77325;BME280;66387;53.440;10.390;2023-01-15T13:16:56;98653.13;;;6.09;76.18
77325;BME280;66387;53.440;10.390;2023-01-15T13:19:28;98645.88;;;5.57;75.23
77325;BME280;66387;53.440;10.390;2023-01-15T13:22:00;98645.03;;;5.21;75.54
77325;BME280;66387;53.440;10.390;2023-01-15T13:25:17;98637.34;;;5.18;75.50
77325;BME280;66387;53.440;10.390;2023-01-15T13:27:29;98640.34;;;5.38;74.97
77325;BME280;66387;53.440;10.390;2023-01-15T13:30:25;98626.78;;;5.30;75.35
77325;BME280;66387;53.440;10.390;2023-01-15T13:33:03;98628.31;;;5.38;72.42
77325;BME280;66387;53.440;10.390;2023-01-15T13:35:47;98628.75;;;5.54;70.21
77325;BME280;66387;53.440;10.390;2023-01-15T13:38:17;98638.88;;;5.62;70.24
77325;BME280;66387;53.440;10.390;2023-01-15T13:40:48;98637.72;;;5.75;68.29
77325;BME280;66387;53.440;10.390;2023-01-15T13:43:38;98625.69;;;5.75;68.54
77325;BME280;66387;53.440;10.390;2023-01-15T13:46:08;98627.41;;;5.75;69.40
77325;BME280;66387;53.440;10.390;2023-01-15T13:48:44;98640.19;;;5.78;69.24